Time;durP1;ratioP1;P1;durP2;ratioP2;P2;SDS_P1;SDS_P2;PMS_P1;PMS_P2;Temp;Humidity;BMP_temperature;BMP_pressure;BME280_temperature;BME280_humidity;BME280_pressure;Samples;Min_cycle;Max_cycle;Signal;HPM_P1;HPM_P2
2021/09/17 00:01:05;;;;;;;23.00;9.82;;;;;;;14.42;80.58;101491.28;5060581;28;20040;-72
2021/09/17 00:03:32;;;;;;;20.92;9.32;;;;;;;14.52;80.62;101497.34;5093390;28;20131;-71
2021/09/17 00:05:59;;;;;;;19.45;9.63;;;;;;;14.56;80.89;101495.19;5085839;28;20044;-72
2021/09/17 00:08:25;;;;;;;21.40;10.38;;;;;;;14.56;80.79;101496.03;5077275;28;20054;-72
2021/09/17 00:10:52;;;;;;;21.02;10.10;;;;;;;14.60;80.98;101493.91;5077351;28;20044;-72
2021/09/17 00:13:19;;;;;;;18.20;9.15;;;;;;;14.64;80.85;101492.56;5095424;28;20054;-72
2021/09/17 00:15:46;;;;;;;19.52;9.65;;;;;;;14.67;80.66;101494.09;5056818;28;20051;-72
2021/09/17 00:18:13;;;;;;;19.45;10.55;;;;;;;14.66;80.83;101489.75;5057307;28;20068;-71
2021/09/17 00:20:40;;;;;;;17.10;9.30;;;;;;;14.70;80.92;101489.25;5074708;28;20098;-72
2021/09/17 00:23:07;;;;;;;19.20;9.48;;;;;;;14.77;80.77;101484.94;5040244;28;20097;-72
2021/09/17 00:25:34;;;;;;;20.27;9.65;;;;;;;14.82;80.63;101489.78;5074546;28;20119;-72
2021/09/17 00:28:02;;;;;;;18.35;9.40;;;;;;;14.85;80.46;101484.13;5074659;28;20094;-72
2021/09/17 00:30:29;;;;;;;19.30;9.05;;;;;;;14.91;80.50;101488.78;5056931;28;20114;-71
2021/09/17 00:32:57;;;;;;;18.63;9.43;;;;;;;14.96;80.28;101489.13;5074343;28;20036;-71
2021/09/17 00:35:24;;;;;;;16.85;9.20;;;;;;;14.99;80.47;101490.66;5078365;28;20055;-72
2021/09/17 00:37:52;;;;;;;18.95;9.20;;;;;;;14.98;80.50;101480.97;5076244;28;20036;-72
2021/09/17 00:40:19;;;;;;;21.65;8.98;;;;;;;14.99;80.44;101479.97;5094661;28;20040;-72
2021/09/17 00:42:46;;;;;;;19.92;9.05;;;;;;;14.92;80.48;101477.13;5076653;28;20040;-72
2021/09/17 00:45:14;;;;;;;17.88;8.75;;;;;;;14.94;80.46;101469.78;5062496;28;20037;-72
2021/09/17 00:47:42;;;;;;;18.27;8.63;;;;;;;15.02;80.04;101481.47;5073803;28;20059;-72
2021/09/17 00:50:12;;;;;;;21.83;8.93;;;;;;;14.99;80.45;101469.28;5056420;28;20044;-71
2021/09/17 00:52:39;;;;;;;20.75;8.40;;;;;;;14.99;80.36;101471.97;5057803;28;20066;-72
2021/09/17 00:55:07;;;;;;;18.42;7.95;;;;;;;14.96;80.29;101466.94;5076331;28;20040;-71
2021/09/17 00:57:35;;;;;;;21.50;8.07;;;;;;;15.02;80.03;101473.47;5076116;28;20079;-72
2021/09/17 01:00:08;;;;;;;18.38;8.60;;;;;;;15.04;80.31;101480.28;5056534;28;20044;-72
2021/09/17 01:02:35;;;;;;;21.05;8.27;;;;;;;15.01;80.41;101475.31;5056284;28;20430;-72
2021/09/17 01:05:04;;;;;;;16.33;8.32;;;;;;;15.03;80.22;101472.47;5073926;28;20068;-71
2021/09/17 01:07:32;;;;;;;16.20;8.18;;;;;;;15.07;80.13;101471.13;5055912;28;20072;-71
2021/09/17 01:10:00;;;;;;;15.77;7.90;;;;;;;15.06;80.50;101475.66;5056045;28;20110;-71
2021/09/17 01:12:26;;;;;;;20.95;8.18;;;;;;;15.06;80.55;101478.31;5073929;28;20041;-71
2021/09/17 01:14:53;;;;;;;18.90;7.93;;;;;;;15.08;80.58;101473.66;5072034;28;20044;-72
2021/09/17 01:17:20;;;;;;;20.30;8.43;;;;;;;15.08;80.57;101468.28;5039038;28;20054;-71
2021/09/17 01:19:47;;;;;;;18.15;9.15;;;;;;;15.02;80.44;101460.94;5073311;28;20127;-71
2021/09/17 01:22:14;;;;;;;17.77;8.60;;;;;;;15.04;80.25;101464.25;5039239;28;20051;-71
2021/09/17 01:24:41;;;;;;;15.75;8.43;;;;;;;15.05;80.09;101459.78;5063566;28;20050;-72
2021/09/17 01:27:08;;;;;;;18.38;9.30;;;;;;;15.03;80.26;101457.28;5093879;28;20117;-72
2021/09/17 01:29:35;;;;;;;16.98;8.55;;;;;;;14.97;80.55;101461.44;5093490;28;20043;-72
2021/09/17 01:32:02;;;;;;;20.65;8.63;;;;;;;14.99;80.29;101466.63;5075793;28;20126;-72
2021/09/17 01:34:29;;;;;;;21.90;8.85;;;;;;;14.97;80.49;101450.75;5075346;28;20060;-72
2021/09/17 01:36:55;;;;;;;17.30;9.27;;;;;;;15.03;81.06;101461.78;5075771;28;20078;-72
2021/09/17 01:39:22;;;;;;;18.13;9.48;;;;;;;15.06;80.93;101461.44;5093767;28;20052;-72
2021/09/17 01:41:49;;;;;;;15.95;9.18;;;;;;;15.08;80.78;101459.44;5093388;28;20500;-72
2021/09/17 01:44:16;;;;;;;16.20;9.23;;;;;;;15.09;80.54;101459.25;5073364;28;20048;-72
2021/09/17 01:46:43;;;;;;;17.70;8.98;;;;;;;15.09;80.70;101453.91;5089484;28;20093;-72
2021/09/17 01:49:10;;;;;;;23.75;10.75;;;;;;;15.15;80.62;101457.75;5069265;28;20790;-72
2021/09/17 01:51:37;;;;;;;21.10;10.50;;;;;;;15.15;81.11;101447.06;5091265;28;20079;-72
2021/09/17 01:54:05;;;;;;;21.90;11.45;;;;;;;15.22;81.21;101445.41;5075609;28;20085;-72
2021/09/17 01:56:33;;;;;;;24.27;12.70;;;;;;;15.16;81.33;101446.91;5089599;28;20493;-72
2021/09/17 01:59:01;;;;;;;20.98;13.25;;;;;;;15.10;81.37;101449.44;5039022;28;20051;-72
2021/09/17 02:01:40;;;;;;;27.63;17.08;;;;;;;15.14;81.12;101442.75;5056835;28;20550;-72
2021/09/17 02:04:07;;;;;;;26.65;17.00;;;;;;;15.11;80.72;101443.06;5038317;28;20072;-72
2021/09/17 02:06:34;;;;;;;29.75;18.15;;;;;;;15.14;80.70;101434.72;5055078;28;20512;-72
2021/09/17 02:09:02;;;;;;;34.20;19.75;;;;;;;15.10;80.59;101434.22;5070856;28;20397;-72
2021/09/17 02:11:28;;;;;;;32.70;20.05;;;;;;;15.15;80.19;101437.25;5074754;28;20059;-72
2021/09/17 02:13:56;;;;;;;32.40;19.52;;;;;;;15.18;80.05;101441.41;5090152;28;20400;-72
2021/09/17 02:16:22;;;;;;;28.88;18.85;;;;;;;15.15;80.40;101439.06;5054476;28;20041;-72
2021/09/17 02:18:49;;;;;;;31.10;18.48;;;;;;;15.12;80.48;101434.88;5053150;28;20405;-72
2021/09/17 02:21:21;;;;;;;35.47;20.67;;;;;;;15.11;80.48;101440.41;5072917;28;20490;-72
2021/09/17 02:23:49;;;;;;;34.75;21.58;;;;;;;15.16;79.59;101427.38;5023431;28;20406;-72
2021/09/17 02:26:17;;;;;;;36.05;22.27;;;;;;;15.22;79.52;101425.88;5074417;28;20045;-72
2021/09/17 02:28:45;;;;;;;39.92;21.42;;;;;;;15.15;79.33;101425.69;5083025;28;20044;-72
2021/09/17 02:31:12;;;;;;;37.33;21.63;;;;;;;15.03;80.10;101430.53;5070550;28;20047;-71
2021/09/17 02:33:39;;;;;;;36.30;21.05;;;;;;;14.99;80.75;101429.22;5092032;28;20048;-73
2021/09/17 02:36:06;;;;;;;35.50;20.50;;;;;;;15.01;80.70;101421.88;5092100;28;20139;-72
2021/09/17 02:38:33;;;;;;;38.35;22.38;;;;;;;15.08;80.55;101424.69;5092180;28;20043;-72
2021/09/17 02:41:00;;;;;;;42.08;22.50;;;;;;;15.10;80.18;101426.22;5092214;28;20043;-73
2021/09/17 02:43:27;;;;;;;40.65;23.95;;;;;;;15.08;80.60;101422.00;5090467;28;20036;-72
2021/09/17 02:45:54;;;;;;;46.75;24.25;;;;;;;15.09;80.23;101419.19;5073187;28;20040;-72
2021/09/17 02:48:21;;;;;;;38.38;23.75;;;;;;;15.10;79.87;101423.53;5091932;28;20036;-72
2021/09/17 02:50:47;;;;;;;39.45;24.35;;;;;;;15.12;80.00;101416.19;5092218;28;20040;-72
2021/09/17 02:53:14;;;;;;;38.38;23.73;;;;;;;15.08;80.02;101409.50;5068947;28;20032;-72
2021/09/17 02:55:41;;;;;;;40.72;24.52;;;;;;;15.07;79.94;101413.19;5074262;28;20091;-72
2021/09/17 02:58:08;;;;;;;40.50;25.67;;;;;;;15.04;80.36;101408.16;5072602;28;20036;-72
2021/09/17 03:00:37;;;;;;;42.72;25.95;;;;;;;15.05;80.17;101407.16;5081442;28;20051;-72
2021/09/17 03:03:04;;;;;;;44.13;26.33;;;;;;;14.91;80.58;101405.16;5078155;28;20043;-72
2021/09/17 03:05:30;;;;;;;43.13;26.00;;;;;;;14.96;80.42;101416.19;5095730;28;20044;-72
2021/09/17 03:07:57;;;;;;;46.40;27.60;;;;;;;15.00;80.06;101403.34;5064209;28;20132;-72
2021/09/17 03:10:24;;;;;;;46.22;25.90;;;;;;;14.92;80.48;101407.66;5053700;28;20036;-73
2021/09/17 03:12:50;;;;;;;44.80;26.05;;;;;;;14.94;80.21;101408.34;5094485;28;20143;-73
2021/09/17 03:15:17;;;;;;;42.15;25.92;;;;;;;14.89;80.71;101408.00;5074074;28;20089;-72
2021/09/17 03:17:44;;;;;;;45.03;27.42;;;;;;;15.01;80.44;101408.50;5077324;28;20536;-72
2021/09/17 03:20:11;;;;;;;44.53;28.05;;;;;;;15.07;80.02;101399.00;5077518;28;20028;-72
2021/09/17 03:22:38;;;;;;;45.95;27.08;;;;;;;15.08;79.91;101403.31;5077763;28;20119;-72
2021/09/17 03:25:06;;;;;;;45.10;28.83;;;;;;;15.11;79.77;101403.00;5077915;28;20052;-72
2021/09/17 03:27:33;;;;;;;45.90;27.88;;;;;;;15.06;79.76;101402.66;5077699;28;20292;-72
2021/09/17 03:30:02;;;;;;;54.72;29.17;;;;;;;15.10;79.73;101398.66;5077703;28;20504;-72
2021/09/17 03:32:29;;;;;;;47.72;28.48;;;;;;;15.12;79.63;101400.16;5077285;28;20073;-72
2021/09/17 03:34:55;;;;;;;50.78;28.52;;;;;;;15.12;79.94;101397.47;5077504;28;20040;-72
2021/09/17 03:37:22;;;;;;;46.30;28.98;;;;;;;15.09;80.06;101396.97;5093715;28;20036;-72
2021/09/17 03:39:49;;;;;;;43.60;27.85;;;;;;;15.12;80.10;101392.13;5077304;28;20051;-72
2021/09/17 03:42:16;;;;;;;45.22;27.30;;;;;;;15.13;80.20;101384.94;5095376;28;20072;-72
2021/09/17 03:44:42;;;;;;;43.95;26.55;;;;;;;15.10;80.02;101385.31;5077067;28;20488;-72
2021/09/17 03:47:09;;;;;;;50.92;29.00;;;;;;;15.16;79.63;101390.78;5071835;28;20121;-72
2021/09/17 03:49:36;;;;;;;48.08;28.85;;;;;;;15.14;79.59;101382.09;5076441;28;20044;-72
2021/09/17 03:52:03;;;;;;;45.90;28.42;;;;;;;15.15;79.87;101383.78;5094698;28;20441;-73
2021/09/17 03:54:30;;;;;;;48.75;28.80;;;;;;;15.15;80.06;101381.13;5095012;28;20571;-72
2021/09/17 03:56:59;;;;;;;53.20;30.00;;;;;;;15.15;80.00;101382.94;5076883;28;20040;-72
2021/09/17 03:59:25;;;;;;;57.15;29.80;;;;;;;15.16;79.75;101380.09;5059854;28;20508;-72
2021/09/17 04:01:52;;;;;;;50.92;29.45;;;;;;;15.15;79.96;101377.59;5094776;28;20040;-72
2021/09/17 04:04:19;;;;;;;56.33;30.05;;;;;;;15.25;78.81;101380.09;5076401;28;20119;-72
2021/09/17 04:06:46;;;;;;;54.75;31.17;;;;;;;15.24;78.44;101381.91;5076911;28;20560;-72
2021/09/17 04:09:13;;;;;;;52.17;31.17;;;;;;;15.24;78.66;101387.25;5094288;28;20036;-72
2021/09/17 04:11:40;;;;;;;50.40;30.50;;;;;;;15.19;79.29;101381.63;5076807;28;20042;-72
2021/09/17 04:14:07;;;;;;;51.75;30.17;;;;;;;15.19;79.18;101381.63;5075177;28;20397;-72
2021/09/17 04:16:33;;;;;;;53.03;31.35;;;;;;;15.21;79.02;101381.41;5089542;28;20075;-72
2021/09/17 04:19:00;;;;;;;48.33;28.83;;;;;;;15.19;79.51;101383.44;5056217;28;20043;-72
2021/09/17 04:21:27;;;;;;;49.83;29.55;;;;;;;15.17;79.75;101378.25;5069796;28;20040;-72
2021/09/17 04:23:54;;;;;;;47.70;29.63;;;;;;;15.21;79.41;101384.94;5076547;28;20089;-72
2021/09/17 04:26:22;;;;;;;54.30;32.22;;;;;;;15.22;79.52;101372.41;5094688;28;20040;-72
2021/09/17 04:28:50;;;;;;;52.08;31.30;;;;;;;15.19;79.51;101373.59;5076203;28;20051;-72
2021/09/17 04:31:17;;;;;;;51.60;30.58;;;;;;;15.21;79.62;101376.06;5076442;28;20493;-72
2021/09/17 04:33:44;;;;;;;54.67;30.55;;;;;;;15.21;79.84;101381.41;5093671;28;20040;-73
2021/09/17 04:36:11;;;;;;;50.58;30.23;;;;;;;15.14;80.02;101376.75;5094042;28;20443;-72
2021/09/17 04:38:38;;;;;;;51.45;31.23;;;;;;;15.16;79.82;101373.94;5066949;28;20479;-72
2021/09/17 04:41:05;;;;;;;54.42;32.03;;;;;;;15.15;79.44;101374.91;5074443;28;20040;-73
2021/09/17 04:43:31;;;;;;;54.10;31.42;;;;;;;15.14;79.46;101381.28;5067921;28;20049;-73
2021/09/17 04:45:58;;;;;;;55.20;31.88;;;;;;;15.15;79.73;101380.25;5069088;28;20043;-73
2021/09/17 04:48:25;;;;;;;54.40;30.35;;;;;;;15.16;79.82;101377.44;5093546;28;20042;-72
2021/09/17 04:50:52;;;;;;;53.72;29.92;;;;;;;15.18;79.56;101371.91;5093876;28;20043;-72
2021/09/17 04:53:18;;;;;;;51.63;29.65;;;;;;;15.15;79.58;101377.59;5064779;28;20044;-72
2021/09/17 04:55:47;;;;;;;52.70;31.17;;;;;;;15.15;79.60;101382.94;5090911;28;20101;-72
2021/09/17 04:58:14;;;;;;;57.17;31.95;;;;;;;15.24;78.89;101384.59;5075387;28;20515;-73
2021/09/17 05:00:40;;;;;;;58.38;30.92;;;;;;;15.18;79.13;101379.09;5064896;28;20044;-72
2021/09/17 05:03:07;;;;;;;55.88;31.80;;;;;;;15.23;79.29;101374.94;5069681;28;20040;-72
2021/09/17 05:05:34;;;;;;;57.38;31.75;;;;;;;15.22;79.38;101378.59;5091776;28;20032;-73
2021/09/17 05:08:01;;;;;;;54.35;30.30;;;;;;;15.14;79.31;101378.59;5055314;28;20044;-72
2021/09/17 05:10:27;;;;;;;59.42;32.95;;;;;;;15.18;79.12;101379.94;5043737;28;20102;-72
2021/09/17 05:12:54;;;;;;;56.65;30.95;;;;;;;15.15;79.27;101383.78;5075829;28;20044;-72
2021/09/17 05:15:21;;;;;;;60.47;31.73;;;;;;;15.24;78.71;101387.25;5070552;28;20073;-73
2021/09/17 05:17:48;;;;;;;54.15;30.33;;;;;;;15.28;78.01;101383.28;5074892;28;20043;-72
2021/09/17 05:20:15;;;;;;;57.78;30.98;;;;;;;15.28;78.55;101385.09;5074652;28;20044;-72
2021/09/17 05:22:42;;;;;;;57.80;30.08;;;;;;;15.28;78.72;101385.09;5093388;28;20044;-72
2021/09/17 05:25:09;;;;;;;54.47;30.25;;;;;;;15.28;79.15;101380.59;5093522;28;20070;-72
2021/09/17 05:27:36;;;;;;;48.78;28.10;;;;;;;15.27;79.00;101378.91;5040848;28;20119;-72
2021/09/17 05:30:05;;;;;;;50.35;29.25;;;;;;;15.28;79.06;101385.09;5082061;28;20040;-72
2021/09/17 05:32:32;;;;;;;55.83;29.98;;;;;;;15.30;78.99;101383.09;5093180;28;20051;-72
2021/09/17 05:34:59;;;;;;;60.90;30.10;;;;;;;15.28;79.02;101393.09;5087681;28;20522;-72
2021/09/17 05:37:25;;;;;;;56.22;28.90;;;;;;;15.30;78.24;101391.94;5074537;28;20036;-73
2021/09/17 05:39:52;;;;;;;57.28;29.38;;;;;;;15.30;78.66;101391.13;5092614;28;20040;-72
2021/09/17 05:42:20;;;;;;;55.25;28.45;;;;;;;15.33;78.81;101390.78;5075006;28;20072;-72
2021/09/17 05:44:47;;;;;;;54.42;28.70;;;;;;;15.31;78.97;101393.59;5092844;28;20050;-72
2021/09/17 05:47:14;;;;;;;53.20;29.13;;;;;;;15.36;77.66;101393.09;5087764;28;20036;-72
2021/09/17 05:49:40;;;;;;;50.90;28.48;;;;;;;15.35;77.43;101394.97;5091709;28;20040;-72
2021/09/17 05:52:08;;;;;;;52.15;28.65;;;;;;;15.46;76.79;101396.44;5074247;28;20040;-73
2021/09/17 05:54:37;;;;;;;57.03;28.15;;;;;;;15.42;77.12;101392.41;5074704;28;20415;-73
2021/09/17 05:57:04;;;;;;;50.47;27.90;;;;;;;15.38;77.76;101395.63;5092718;28;20040;-73
2021/09/17 05:59:30;;;;;;;55.50;28.55;;;;;;;15.47;77.25;101399.94;5092866;28;20066;-72
2021/09/17 06:01:57;;;;;;;49.67;27.08;;;;;;;15.43;77.18;101394.09;5075028;28;20040;-72
2021/09/17 06:04:24;;;;;;;54.97;27.30;;;;;;;15.36;77.99;101393.94;5058111;28;20051;-72
2021/09/17 06:06:51;;;;;;;96.82;31.55;;;;;;;15.39;78.02;101399.94;5091376;28;20492;-72
2021/09/17 06:09:18;;;;;;;59.60;28.92;;;;;;;15.34;78.62;101398.63;5074762;28;20423;-72
2021/09/17 06:11:44;;;;;;;56.60;27.60;;;;;;;15.38;79.04;101395.63;5074216;28;20059;-72
2021/09/17 06:14:11;;;;;;;56.22;27.88;;;;;;;15.41;79.06;101400.59;5069639;28;20123;-72
2021/09/17 06:16:38;;;;;;;59.60;28.13;;;;;;;15.45;78.36;101401.97;5038225;28;20626;-72
2021/09/17 06:19:05;;;;;;;55.05;27.38;;;;;;;15.49;78.74;101395.25;5072176;28;20040;-72
2021/09/17 06:21:33;;;;;;;53.50;28.05;;;;;;;15.46;78.04;101401.78;5037887;28;20044;-73
2021/09/17 06:24:01;;;;;;;52.00;26.75;;;;;;;15.45;77.40;101400.09;5072597;28;20119;-72
2021/09/17 06:26:31;;;;;;;53.22;26.50;;;;;;;15.50;77.56;101397.75;5054213;28;20070;-73
2021/09/17 06:29:00;;;;;;;61.47;27.75;;;;;;;15.50;77.46;101400.44;5057937;28;20046;-72
2021/09/17 06:31:27;;;;;;;57.05;27.42;;;;;;;15.58;77.19;101396.06;5054465;28;20041;-72
2021/09/17 06:33:55;;;;;;;55.00;26.58;;;;;;;15.63;76.39;101396.41;5053133;28;20123;-72
2021/09/17 06:36:22;;;;;;;58.95;26.80;;;;;;;15.66;76.53;101393.38;5072156;28;20052;-73
2021/09/17 06:38:48;;;;;;;54.15;26.70;;;;;;;15.67;76.55;101390.53;5072087;28;20032;-73
2021/09/17 06:41:15;;;;;;;53.42;26.42;;;;;;;15.74;76.40;101393.38;5074706;28;20051;-72
2021/09/17 06:43:42;;;;;;;57.45;27.50;;;;;;;15.82;75.80;101390.66;5045244;28;20040;-73
2021/09/17 06:46:09;;;;;;;56.92;26.70;;;;;;;15.83;76.18;101388.84;5054577;28;20115;-73
2021/09/17 06:48:35;;;;;;;62.67;27.63;;;;;;;15.79;76.24;101390.19;5072110;28;20071;-72
2021/09/17 06:51:03;;;;;;;64.60;27.15;;;;;;;15.77;76.79;101390.38;5075833;28;20059;-73
2021/09/17 06:53:30;;;;;;;55.35;27.63;;;;;;;15.78;76.65;101389.34;5062431;28;20032;-73
2021/09/17 06:55:56;;;;;;;55.15;26.40;;;;;;;15.77;76.37;101387.69;5067059;28;20067;-72
2021/09/17 06:58:28;;;;;;;59.22;28.70;;;;;;;15.73;76.81;101383.66;5078064;28;20448;-72
2021/09/17 07:00:55;;;;;;;56.40;28.13;;;;;;;15.82;76.98;101393.34;5067926;28;20081;-72
2021/09/17 07:03:22;;;;;;;55.33;28.23;;;;;;;15.85;76.37;101394.84;5056076;28;20119;-72
2021/09/17 07:05:49;;;;;;;63.08;28.25;;;;;;;15.87;76.31;101399.00;5090757;28;20036;-72
2021/09/17 07:08:18;;;;;;;61.13;27.80;;;;;;;15.87;76.56;101393.66;5064300;28;20040;-72
2021/09/17 07:10:46;;;;;;;54.75;27.40;;;;;;;15.92;76.37;101388.63;5082944;28;20043;-72
2021/09/17 07:13:13;;;;;;;69.35;28.25;;;;;;;15.92;75.90;101388.63;5058048;28;20051;-72
2021/09/17 07:15:40;;;;;;;55.67;27.00;;;;;;;15.97;75.59;101385.47;5092242;28;20044;-72
2021/09/17 07:18:07;;;;;;;55.42;26.42;;;;;;;15.85;74.99;101381.47;5069114;28;20044;-72
2021/09/17 07:20:36;;;;;;;60.95;26.65;;;;;;;15.87;74.91;101385.63;5068595;28;20056;-73
2021/09/17 07:23:04;;;;;;;57.33;25.95;;;;;;;15.92;74.88;101385.13;5086035;28;20044;-72
2021/09/17 07:25:32;;;;;;;65.97;26.00;;;;;;;15.95;75.13;101383.94;5070287;28;20714;-72
2021/09/17 07:27:59;;;;;;;57.95;25.75;;;;;;;16.00;74.57;101385.09;5071639;28;20374;-73
2021/09/17 07:30:26;;;;;;;59.28;27.10;;;;;;;15.99;74.94;101379.91;5090932;28;20036;-73
2021/09/17 07:32:52;;;;;;;53.88;26.33;;;;;;;16.01;75.47;101381.41;5066268;28;20067;-71
2021/09/17 07:35:20;;;;;;;55.97;26.85;;;;;;;16.15;74.80;101382.50;5052014;28;20048;-71
2021/09/17 07:37:47;;;;;;;64.65;26.60;;;;;;;16.11;75.45;101379.34;5087538;28;20040;-71
2021/09/17 07:40:14;;;;;;;61.88;26.80;;;;;;;16.03;76.45;101378.56;5071875;28;20036;-71
2021/09/17 07:42:44;;;;;;;70.05;28.27;;;;;;;16.08;76.26;101384.22;5073717;28;20059;-71
2021/09/17 07:45:12;;;;;;;70.38;26.92;;;;;;;16.10;76.30;101377.69;5087672;28;20123;-71
2021/09/17 07:47:39;;;;;;;60.60;27.23;;;;;;;16.07;76.12;101385.22;5095009;28;20036;-71
2021/09/17 07:50:08;;;;;;;63.90;27.73;;;;;;;16.09;76.30;101383.22;5075976;28;20040;-71
2021/09/17 07:52:35;;;;;;;54.72;28.27;;;;;;;16.14;76.65;101390.72;5075344;28;20463;-71
2021/09/17 07:55:03;;;;;;;59.70;27.88;;;;;;;16.24;76.67;101375.28;5092540;28;20405;-71
2021/09/17 07:57:29;;;;;;;56.30;28.42;;;;;;;16.22;76.64;101386.16;5091555;28;20037;-71
2021/09/17 07:59:56;;;;;;;57.28;28.75;;;;;;;16.25;76.86;101383.13;5067663;28;20145;-71
2021/09/17 08:02:23;;;;;;;56.60;26.77;;;;;;;16.23;77.03;101381.66;5074568;28;20042;-71
2021/09/17 08:04:50;;;;;;;57.03;27.55;;;;;;;16.29;77.12;101387.13;5075305;28;20400;-70
2021/09/17 08:07:16;;;;;;;56.28;26.73;;;;;;;16.27;76.90;101377.59;5081202;28;20040;-70
2021/09/17 08:09:43;;;;;;;53.33;26.83;;;;;;;16.30;76.77;101382.63;5073621;28;20040;-70
2021/09/17 08:12:10;;;;;;;53.22;26.55;;;;;;;16.32;76.89;101377.91;5074620;28;20124;-70
2021/09/17 08:14:37;;;;;;;53.22;26.67;;;;;;;16.37;76.36;101385.41;5094704;28;20496;-70
2021/09/17 08:17:04;;;;;;;61.50;26.80;;;;;;;16.38;76.09;101379.88;5092892;28;20405;-70
2021/09/17 08:19:30;;;;;;;54.88;27.02;;;;;;;16.41;76.00;101378.66;5074058;28;20036;-71
2021/09/17 08:21:57;;;;;;;48.83;24.85;;;;;;;16.44;76.07;101373.78;5069226;28;20051;-71
2021/09/17 08:24:24;;;;;;;51.80;24.98;;;;;;;16.47;76.04;101368.09;5086460;28;20150;-70
2021/09/17 08:26:53;;;;;;;51.70;26.10;;;;;;;16.42;76.26;101373.16;5090288;28;20032;-70
2021/09/17 08:29:19;;;;;;;52.47;27.15;;;;;;;16.43;76.27;101366.78;5092505;28;20040;-70
2021/09/17 08:32:01;;;;;;;51.63;27.58;;;;;;;16.48;76.17;101368.91;5076856;28;20033;-69
2021/09/17 08:34:48;;;;;;;54.00;27.80;;;;;;;16.47;76.08;101361.91;5086443;28;20139;-70
2021/09/17 08:37:36;;;;;;;48.58;26.83;;;;;;;16.56;76.28;101370.72;5082800;28;20048;-70
2021/09/17 08:40:22;;;;;;;60.03;27.35;;;;;;;16.62;76.10;101364.66;5073653;28;20109;-70
2021/09/17 08:42:49;;;;;;;55.90;28.38;;;;;;;16.66;75.56;101366.81;5090041;28;20089;-70
2021/09/17 08:45:15;;;;;;;52.42;28.45;;;;;;;16.65;75.51;101366.97;5091515;28;20051;-70
2021/09/17 08:47:48;;;;;;;50.28;25.90;;;;;;;16.70;75.82;101383.34;5089936;28;20075;-70
2021/09/17 08:50:17;;;;;;;51.47;26.48;;;;;;;16.70;75.68;101394.06;5074892;28;20484;-70
2021/09/17 08:52:43;;;;;;;47.55;26.83;;;;;;;16.78;74.66;101390.50;5071656;28;20489;-71
2021/09/17 08:55:11;;;;;;;48.90;25.83;;;;;;;16.87;74.89;101392.13;5057590;28;20427;-70
2021/09/17 08:57:38;;;;;;;55.30;27.65;;;;;;;17.05;74.15;101389.13;5091544;28;20093;-71
2021/09/17 09:00:25;;;;;;;56.20;27.67;;;;;;;17.29;73.54;101387.25;5091236;28;20401;-71
2021/09/17 09:02:56;;;;;;;52.70;26.67;;;;;;;17.80;71.79;101380.13;5087826;28;20505;-70
2021/09/17 09:05:30;;;;;;;49.97;26.33;;;;;;;18.03;70.92;101381.91;5088850;28;20075;-70
2021/09/17 09:07:58;;;;;;;53.75;25.92;;;;;;;18.23;69.89;101369.53;5052420;28;20487;-70
2021/09/17 09:10:26;;;;;;;48.80;25.17;;;;;;;18.54;69.08;101370.28;5086135;28;20080;-71
2021/09/17 09:12:54;;;;;;;51.00;25.98;;;;;;;18.71;66.61;101371.66;5073269;28;20141;-70
2021/09/17 09:15:25;;;;;;;52.88;26.27;;;;;;;18.68;65.84;101363.16;5092126;28;20044;-70
2021/09/17 09:17:56;;;;;;;49.22;26.58;;;;;;;18.49;66.30;101367.34;5058808;28;20043;-70
2021/09/17 09:20:27;;;;;;;47.67;26.27;;;;;;;19.97;62.52;101373.59;5086406;28;20122;-70
2021/09/17 09:25:58;;;;;;;45.45;24.52;;;;;;;21.81;56.32;101382.22;5085248;28;20489;-69
2021/09/17 09:28:30;;;;;;;47.22;25.85;;;;;;;22.34;53.28;101379.34;5066588;28;20048;-70
2021/09/17 09:31:01;;;;;;;47.58;24.10;;;;;;;22.52;54.00;101383.16;5069427;28;20036;-70
2021/09/17 09:33:32;;;;;;;47.50;24.23;;;;;;;21.25;57.48;101384.41;5063317;28;20103;-70
2021/09/17 09:36:06;;;;;;;52.22;24.73;;;;;;;20.60;58.75;101383.34;5055471;28;20400;-70
2021/09/17 09:38:50;;;;;;;46.08;25.02;;;;;;;20.39;59.76;101387.00;5070504;28;20068;-70
2021/09/17 09:41:22;;;;;;;47.42;24.58;;;;;;;19.96;61.15;101373.84;5072094;28;20044;-70
2021/09/17 09:44:16;;;;;;;45.15;24.80;;;;;;;19.83;61.81;101378.13;5073871;28;20061;-70
2021/09/17 09:46:44;;;;;;;44.13;23.75;;;;;;;19.94;61.93;101380.22;5069840;28;20428;-70
2021/09/17 09:49:25;;;;;;;52.13;24.58;;;;;;;20.06;60.36;101380.47;5071026;28;20039;-70
2021/09/17 09:52:07;;;;;;;44.60;25.55;;;;;;;19.70;60.71;101381.53;5069959;28;20037;-70
2021/09/17 09:54:34;;;;;;;;;;;;;;;20.39;58.91;101379.78;5066901;28;20036;-70
2021/09/17 09:57:03;;;;;;;48.17;22.58;;;;;;;20.04;60.00;101377.16;5066744;28;19920;-70
2021/09/17 09:59:33;;;;;;;46.20;23.10;;;;;;;21.89;55.45;101373.09;5064322;28;20128;-70
2021/09/17 10:02:03;;;;;;;40.22;22.95;;;;;;;22.87;51.53;101377.31;5064391;28;20049;-71
2021/09/17 10:04:31;;;;;;;46.33;22.83;;;;;;;23.48;50.17;101375.72;5065808;28;20033;-71
2021/09/17 10:07:03;;;;;;;40.78;21.95;;;;;;;24.32;49.07;101367.81;5065953;28;20036;-71
2021/09/17 10:09:35;;;;;;;39.90;21.23;;;;;;;25.33;45.27;101372.53;5068851;28;20126;-70
2021/09/17 10:12:03;;;;;;;39.38;20.73;;;;;;;25.75;44.10;101378.59;5046426;28;20044;-71
2021/09/17 10:14:32;;;;;;;39.45;21.25;;;;;;;26.32;43.41;101372.38;5069337;28;20047;-70
2021/09/17 10:17:04;;;;;;;36.30;19.85;;;;;;;26.87;41.53;101362.75;5067116;28;20131;-70
2021/09/17 10:19:31;;;;;;;35.28;19.98;;;;;;;26.74;40.74;101361.19;5066717;28;20044;-70
2021/09/17 10:22:01;;;;;;;34.70;19.35;;;;;;;27.30;40.52;101363.13;5067403;28;20556;-70
2021/09/17 10:24:29;;;;;;;34.85;19.45;;;;;;;27.05;40.22;101361.66;5054494;28;20041;-70
2021/09/17 10:27:19;;;;;;;44.35;22.60;;;;;;;26.62;39.70;101355.81;5045684;28;20042;-69
2021/09/17 10:29:58;;;;;;;39.25;21.17;;;;;;;25.77;42.00;101365.56;5057737;28;20459;-70
2021/09/17 10:35:11;;;;;;;39.90;23.50;;;;;;;23.99;46.89;101354.72;5088103;27;20175;-69
2021/09/17 10:38:01;;;;;;;41.63;22.17;;;;;;;23.60;49.44;101357.69;5079605;28;20036;-69
2021/09/17 10:40:45;;;;;;;40.90;23.85;;;;;;;23.14;49.18;101361.69;5065052;28;20098;-69
2021/09/17 10:43:15;;;;;;;47.25;24.33;;;;;;;22.27;52.12;101354.22;5050197;28;20091;-70
2021/09/17 10:45:48;;;;;;;38.47;22.40;;;;;;;22.14;51.99;101357.78;5087806;28;20040;-70
2021/09/17 10:48:17;;;;;;;39.30;22.17;;;;;;;21.70;54.94;101350.50;5086742;28;20455;-70
2021/09/17 10:53:59;;;;;;;37.95;23.08;;;;;;;21.30;54.53;101356.78;5120973;27;20375;-69
2021/09/17 10:56:27;;;;;;;40.50;22.40;;;;;;;21.52;55.58;101352.03;5103870;28;20079;-70
2021/09/17 10:59:14;;;;;;;35.47;20.58;;;;;;;21.99;54.34;101349.97;5105180;28;20044;-70
2021/09/17 11:01:50;;;;;;;44.60;22.63;;;;;;;22.38;52.74;101345.41;5094385;28;20381;-70
2021/09/17 11:04:24;;;;;;;43.90;21.88;;;;;;;22.18;53.00;101347.38;5109325;28;20043;-70
2021/09/17 11:06:53;;;;;;;48.95;21.17;;;;;;;22.69;53.41;101342.91;5089908;28;20048;-70
2021/09/17 11:09:43;;;;;;;35.47;20.45;;;;;;;23.00;52.00;101340.13;5109521;28;20050;-70
2021/09/17 11:12:30;;;;;;;43.60;21.65;;;;;;;23.35;50.67;101341.50;5088369;28;20033;-70
2021/09/17 11:17:37;;;;;;;37.97;21.73;;;;;;;23.47;50.67;101336.19;5130805;27;20196;-70
2021/09/17 11:20:09;;;;;;;41.70;21.73;;;;;;;23.13;51.09;101335.69;5095975;28;20093;-70
2021/09/17 11:23:02;;;;;;;39.55;22.40;;;;;;;22.39;52.76;101338.97;5095371;28;20047;-70
2021/09/17 11:25:33;;;;;;;36.03;22.65;;;;;;;21.76;55.02;101328.88;5112175;28;20134;-71
2021/09/17 11:28:02;;;;;;;43.47;22.90;;;;;;;22.14;54.85;101332.63;5095514;28;20399;-71
2021/09/17 11:30:31;;;;;;;38.45;21.25;;;;;;;22.24;55.58;101333.00;5076853;28;20040;-72